createdAt,value
2022-08-31T00:01:43.945Z,101202.29
2022-08-31T00:05:12.371Z,101200.48
2022-08-31T00:08:42.021Z,101202.07
2022-08-31T00:12:09.924Z,101205.84
2022-08-31T00:15:39.225Z,101203.71
2022-08-31T00:19:07.756Z,101212.98
2022-08-31T00:22:34.977Z,101208.04
2022-08-31T00:26:01.699Z,101206.52
2022-08-31T00:29:29.322Z,101208.48
2022-08-31T00:32:57.028Z,101211.45
2022-08-31T00:36:27.370Z,101211.38
2022-08-31T00:39:55.146Z,101210.40
2022-08-31T00:43:48.360Z,101209.10
2022-08-31T00:47:17.390Z,101206.77
2022-08-31T00:50:44.573Z,101204.41
2022-08-31T00:54:14.459Z,101204.53
2022-08-31T00:57:44.582Z,101204.60
2022-08-31T01:01:20.561Z,101201.05
2022-08-31T01:04:48.185Z,101204.47
2022-08-31T01:08:16.228Z,101203.20
2022-08-31T01:11:44.806Z,101204.08
2022-08-31T01:15:14.620Z,101207.12
2022-08-31T01:18:42.837Z,101211.20
2022-08-31T01:22:21.161Z,101215.46
2022-08-31T01:25:54.844Z,101214.90
2022-08-31T01:29:23.140Z,101214.45
2022-08-31T01:32:53.797Z,101214.06
2022-08-31T01:36:22.149Z,101213.33
2022-08-31T01:39:52.091Z,101203.95
2022-08-31T01:43:32.324Z,101203.27
2022-08-31T01:47:03.291Z,101204.23
2022-08-31T01:50:30.650Z,101208.76
2022-08-31T01:53:57.891Z,101208.11
2022-08-31T01:57:34.125Z,101212.90
2022-08-31T02:01:37.851Z,101217.58
2022-08-31T02:05:22.593Z,101217.47
2022-08-31T02:08:50.022Z,101222.66
2022-08-31T02:12:20.140Z,101226.48
2022-08-31T02:15:48.183Z,101226.77
2022-08-31T02:19:15.700Z,101229.73
2022-08-31T02:22:43.251Z,101231.14
2022-08-31T02:26:14.505Z,101232.64
2022-08-31T02:29:44.366Z,101224.11
2022-08-31T02:33:12.276Z,101221.94
2022-08-31T02:36:39.458Z,101219.40
2022-08-31T02:40:13.773Z,101221.09
2022-08-31T02:43:41.881Z,101222.66
2022-08-31T02:47:10.996Z,101223.23
2022-08-31T02:50:57.205Z,101219.17
2022-08-31T02:54:24.737Z,101216.56
2022-08-31T02:57:52.389Z,101213.23
2022-08-31T03:01:20.414Z,101212.70
2022-08-31T03:04:48.653Z,101209.52
2022-08-31T03:08:16.555Z,101208.12
2022-08-31T03:11:49.759Z,101208.48
2022-08-31T03:15:22.300Z,101213.20
2022-08-31T03:18:50.028Z,101209.37
2022-08-31T03:22:16.939Z,101217.15
2022-08-31T03:25:47.011Z,101218.65
2022-08-31T03:29:25.755Z,101224.51
2022-08-31T03:33:02.825Z,101229.29
2022-08-31T03:36:31.937Z,101233.57
2022-08-31T03:39:59.642Z,101230.42
2022-08-31T03:43:28.911Z,101236.98
2022-08-31T03:47:00.451Z,101235.06
2022-08-31T03:50:28.923Z,101231.94
2022-08-31T03:54:08.677Z,101235.25
2022-08-31T03:57:37.139Z,101237.64
2022-08-31T04:01:09.905Z,101231.64
2022-08-31T04:05:16.673Z,101233.66
2022-08-31T04:09:02.316Z,101232.66
2022-08-31T04:12:48.463Z,101229.98
2022-08-31T04:16:35.933Z,101230.72
2022-08-31T04:20:06.781Z,101233.64
2022-08-31T04:23:42.037Z,101232.42
2022-08-31T04:27:10.444Z,101236.11
2022-08-31T04:30:39.150Z,101237.01
2022-08-31T04:34:06.448Z,101235.99
2022-08-31T04:37:34.696Z,101230.77
2022-08-31T04:41:20.946Z,101243.95
2022-08-31T04:44:49.056Z,101244.02
2022-08-31T04:48:18.100Z,101241.84
2022-08-31T04:51:47.595Z,101243.44
2022-08-31T04:55:15.607Z,101244.58
2022-08-31T04:58:43.304Z,101247.02
2022-08-31T05:02:10.493Z,101252.14
2022-08-31T05:06:00.253Z,101250.50
2022-08-31T05:09:35.683Z,101254.64
2022-08-31T05:13:13.064Z,101258.45
2022-08-31T05:16:43.159Z,101264.14
2022-08-31T05:20:13.330Z,101266.80
2022-08-31T05:23:43.030Z,101265.34
2022-08-31T05:27:12.163Z,101269.02
2022-08-31T05:30:48.055Z,101273.45
2022-08-31T05:34:29.530Z,101276.98
2022-08-31T05:37:59.309Z,101278.96
2022-08-31T05:41:33.120Z,101273.85
2022-08-31T05:44:59.229Z,101277.52
2022-08-31T05:48:30.227Z,101277.92
2022-08-31T05:52:00.545Z,101272.94
2022-08-31T05:55:34.548Z,101270.10
2022-08-31T05:59:04.726Z,101282.28
2022-08-31T06:02:36.741Z,101284.93
2022-08-31T06:06:08.901Z,101287.16
2022-08-31T06:09:38.753Z,101289.60
2022-08-31T06:13:17.389Z,101294.13
2022-08-31T06:16:50.830Z,101296.21
2022-08-31T06:20:22.448Z,101298.08
2022-08-31T06:23:56.005Z,101302.76
2022-08-31T06:27:28.166Z,101300.33
2022-08-31T06:30:58.058Z,101301.30
2022-08-31T06:34:29.799Z,101301.35
2022-08-31T06:38:06.182Z,101301.45
2022-08-31T06:41:51.733Z,101301.74
2022-08-31T06:45:34.741Z,101298.70
2022-08-31T06:49:32.465Z,101296.23
2022-08-31T06:53:02.188Z,101294.52
2022-08-31T06:56:55.142Z,101299.92
2022-08-31T07:00:48.629Z,101296.85
2022-08-31T07:04:26.554Z,101301.17
2022-08-31T07:08:07.872Z,101300.67
2022-08-31T07:11:43.545Z,101303.29
2022-08-31T07:15:14.335Z,101301.36
2022-08-31T07:18:43.162Z,101296.48
2022-08-31T07:22:19.092Z,101295.05
2022-08-31T07:25:50.763Z,101296.27
2022-08-31T07:29:21.801Z,101294.91
2022-08-31T07:32:49.037Z,101295.59
2022-08-31T07:36:19.558Z,101295.46
2022-08-31T07:40:19.312Z,101294.91
2022-08-31T07:43:46.592Z,101296.17
2022-08-31T07:47:15.513Z,101299.29
2022-08-31T07:50:47.023Z,101302.23
2022-08-31T07:54:47.625Z,101308.46
2022-08-31T07:58:24.533Z,101309.73
2022-08-31T08:01:56.890Z,101310.09
2022-08-31T08:05:32.230Z,101307.75
2022-08-31T08:09:33.516Z,101310.71
2022-08-31T08:13:17.773Z,101313.50
2022-08-31T08:17:27.812Z,101311.65
2022-08-31T08:21:09.672Z,101309.35
2022-08-31T08:24:47.577Z,101313.95
2022-08-31T08:28:40.574Z,101314.47
2022-08-31T08:32:17.643Z,101317.63
2022-08-31T08:35:57.138Z,101316.80
2022-08-31T08:39:29.908Z,101307.67
2022-08-31T08:43:48.042Z,101308.31
2022-08-31T08:47:37.719Z,101318.19
2022-08-31T08:51:18.890Z,101320.34
2022-08-31T08:55:03.487Z,101315.17
2022-08-31T08:58:33.175Z,101317.42
2022-08-31T09:02:07.174Z,101324.42
2022-08-31T09:06:03.686Z,101321.73
2022-08-31T09:09:44.577Z,101319.27
2022-08-31T09:13:21.615Z,101319.98
2022-08-31T09:16:56.653Z,101317.42
2022-08-31T09:20:24.570Z,101322.31
2022-08-31T09:23:59.899Z,101326.96
2022-08-31T09:27:46.802Z,101324.25
2022-08-31T09:31:34.999Z,101327.09
2022-08-31T09:35:05.831Z,101325.64
2022-08-31T09:38:37.955Z,101327.16
2022-08-31T09:42:14.910Z,101323.36
2022-08-31T09:45:55.545Z,101316.41
2022-08-31T09:49:28.149Z,101317.18
2022-08-31T09:53:24.851Z,101319.73
2022-08-31T09:56:57.795Z,101316.64
2022-08-31T10:00:36.540Z,101313.32
2022-08-31T10:04:20.674Z,101315.15
2022-08-31T10:07:56.880Z,101308.77
2022-08-31T10:11:24.367Z,101306.92
2022-08-31T10:14:56.918Z,101311.90
2022-08-31T10:18:30.404Z,101318.33
2022-08-31T10:22:04.180Z,101315.48
2022-08-31T10:25:38.746Z,101319.74
2022-08-31T10:29:19.112Z,101317.01
2022-08-31T10:32:56.607Z,101314.70
2022-08-31T10:36:33.455Z,101315.91
2022-08-31T10:40:07.384Z,101317.13
2022-08-31T10:43:49.888Z,101319.77
2022-08-31T10:47:34.250Z,101319.05
2022-08-31T10:51:20.762Z,101315.94
2022-08-31T10:54:58.309Z,101315.27
2022-08-31T10:58:41.826Z,101312.61
2022-08-31T11:02:41.776Z,101311.42
2022-08-31T11:06:17.879Z,101310.36
2022-08-31T11:09:55.440Z,101312.09
2022-08-31T11:13:40.124Z,101310.94
2022-08-31T11:17:22.823Z,101306.63
2022-08-31T11:21:17.555Z,101301.88
2022-08-31T11:25:09.049Z,101299.89
2022-08-31T11:28:41.648Z,101296.55
2022-08-31T11:32:20.270Z,101294.81
2022-08-31T11:36:07.602Z,101294.81
2022-08-31T11:39:45.761Z,101291.00
2022-08-31T11:43:17.322Z,101285.27
2022-08-31T11:47:09.606Z,101287.05
2022-08-31T11:51:08.438Z,101278.70
2022-08-31T11:55:07.349Z,101269.31
2022-08-31T11:58:52.315Z,101262.90
2022-08-31T12:02:45.612Z,101271.11
2022-08-31T12:06:40.847Z,101277.60
2022-08-31T12:10:40.861Z,101271.13
2022-08-31T12:14:18.882Z,101274.31
2022-08-31T12:18:00.110Z,101274.27
2022-08-31T12:21:53.556Z,101271.14
2022-08-31T12:25:30.844Z,101261.11
2022-08-31T12:29:30.591Z,101259.69
2022-08-31T12:33:10.010Z,101267.24
2022-08-31T12:36:39.845Z,101266.31
2022-08-31T12:40:20.058Z,101265.89
2022-08-31T12:43:50.252Z,101266.91
2022-08-31T12:47:30.578Z,101265.08
2022-08-31T12:51:08.923Z,101266.27
2022-08-31T12:55:09.547Z,101262.37
2022-08-31T12:58:56.607Z,101255.46
2022-08-31T13:02:28.461Z,101261.80
2022-08-31T13:06:09.782Z,101263.44
2022-08-31T13:09:38.815Z,101255.69
2022-08-31T13:13:10.035Z,101255.79
2022-08-31T13:16:39.897Z,101255.56
2022-08-31T13:20:09.244Z,101256.67
2022-08-31T13:23:42.651Z,101258.20
2022-08-31T13:27:21.429Z,101256.33
2022-08-31T13:31:03.043Z,101254.20
2022-08-31T13:34:34.483Z,101255.69
2022-08-31T13:38:06.303Z,101252.52
2022-08-31T13:41:36.737Z,101250.65
2022-08-31T13:45:09.429Z,101248.76
2022-08-31T13:48:39.243Z,101248.71
2022-08-31T13:52:08.122Z,101246.65
2022-08-31T13:55:39.629Z,101240.02
2022-08-31T13:59:20.574Z,101241.80
2022-08-31T14:02:51.568Z,101239.62
2022-08-31T14:06:25.315Z,101232.89
2022-08-31T14:09:57.738Z,101230.13
2022-08-31T14:13:28.106Z,101229.27
2022-08-31T14:17:03.757Z,101228.33
2022-08-31T14:20:37.831Z,101226.44
2022-08-31T14:24:10.756Z,101223.73
2022-08-31T14:27:43.664Z,101212.23
2022-08-31T14:31:25.319Z,101221.95
2022-08-31T14:34:53.747Z,101224.98
2022-08-31T14:38:23.496Z,101225.41
2022-08-31T14:41:52.889Z,101222.32
2022-08-31T14:45:21.157Z,101226.86
2022-08-31T14:48:48.948Z,101225.66
2022-08-31T14:52:19.219Z,101220.82
2022-08-31T14:55:47.043Z,101225.44
2022-08-31T14:59:18.190Z,101229.58
2022-08-31T15:02:48.818Z,101228.87
2022-08-31T15:06:20.903Z,101227.86
2022-08-31T15:09:50.592Z,101230.23
2022-08-31T15:13:17.882Z,101226.80
2022-08-31T15:17:01.621Z,101222.81
2022-08-31T15:20:30.980Z,101224.33
2022-08-31T15:23:58.673Z,101221.61
2022-08-31T15:27:29.361Z,101221.67
2022-08-31T15:30:58.079Z,101223.55
2022-08-31T15:34:27.417Z,101218.36
2022-08-31T15:37:59.213Z,101217.96
2022-08-31T15:41:32.075Z,101216.67
2022-08-31T15:45:01.455Z,101218.48
2022-08-31T15:48:45.373Z,101216.24
2022-08-31T15:52:20.628Z,101216.77
2022-08-31T15:55:52.478Z,101214.21
2022-08-31T15:59:23.833Z,101215.43
2022-08-31T16:02:57.600Z,101217.08
2022-08-31T16:06:32.895Z,101216.89
2022-08-31T16:10:11.689Z,101213.88
2022-08-31T16:13:50.321Z,101207.15
2022-08-31T16:17:19.384Z,101204.39
2022-08-31T16:20:50.678Z,101206.94
2022-08-31T16:24:20.098Z,101208.34
2022-08-31T16:27:48.477Z,101210.05
2022-08-31T16:31:20.288Z,101202.44
2022-08-31T16:34:51.688Z,101197.63
2022-08-31T16:38:21.365Z,101198.72
2022-08-31T16:41:52.209Z,101204.32
2022-08-31T16:45:19.812Z,101201.09
2022-08-31T16:49:04.474Z,101200.63
2022-08-31T16:52:32.870Z,101195.67
2022-08-31T16:56:01.889Z,101199.29
2022-08-31T16:59:31.296Z,101194.56
2022-08-31T17:02:58.013Z,101195.83
2022-08-31T17:06:26.706Z,101195.15
2022-08-31T17:10:09.748Z,101194.43
2022-08-31T17:13:38.995Z,101199.38
2022-08-31T17:17:08.314Z,101201.92
2022-08-31T17:20:35.518Z,101206.48
2022-08-31T17:24:06.799Z,101209.79
2022-08-31T17:27:38.861Z,101211.27
2022-08-31T17:31:06.960Z,101213.70
2022-08-31T17:34:38.953Z,101217.88
2022-08-31T17:38:08.979Z,101213.67
2022-08-31T17:41:35.766Z,101220.64
2022-08-31T17:45:05.188Z,101229.27
2022-08-31T17:48:32.231Z,101233.02
2022-08-31T17:52:04.616Z,101237.19
2022-08-31T17:55:32.822Z,101238.62
2022-08-31T17:59:07.248Z,101240.75
2022-08-31T18:02:37.962Z,101238.30
2022-08-31T18:06:06.405Z,101239.42
2022-08-31T18:09:36.170Z,101241.46
2022-08-31T18:13:04.171Z,101237.98
2022-08-31T18:16:38.568Z,101238.14
2022-08-31T18:20:09.534Z,101240.52
2022-08-31T18:23:40.106Z,101242.95
2022-08-31T18:27:10.512Z,101241.21
2022-08-31T18:30:58.693Z,101244.64
2022-08-31T18:34:31.329Z,101251.73
2022-08-31T18:38:00.099Z,101254.08
2022-08-31T18:41:50.569Z,101253.45
2022-08-31T18:45:19.909Z,101255.49
2022-08-31T18:49:11.913Z,101256.22
2022-08-31T18:52:42.382Z,101254.13
2022-08-31T18:56:19.584Z,101258.36
2022-08-31T18:59:47.838Z,101258.38
2022-08-31T19:03:17.061Z,101255.20
2022-08-31T19:06:47.859Z,101255.06
2022-08-31T19:10:16.216Z,101257.09
2022-08-31T19:13:51.182Z,101256.02
2022-08-31T19:17:22.190Z,101256.31
2022-08-31T19:20:49.742Z,101256.91
2022-08-31T19:24:22.223Z,101256.23
2022-08-31T19:27:52.140Z,101258.59
2022-08-31T19:31:21.246Z,101256.92
2022-08-31T19:34:49.883Z,101255.70
2022-08-31T19:38:21.268Z,101262.61
2022-08-31T19:41:52.992Z,101263.40
2022-08-31T19:45:23.794Z,101264.05
2022-08-31T19:48:54.186Z,101262.09
2022-08-31T19:52:28.711Z,101265.98
2022-08-31T19:55:57.624Z,101265.23
2022-08-31T19:59:27.062Z,101268.02
2022-08-31T20:03:07.649Z,101270.38
2022-08-31T20:06:39.476Z,101270.88
2022-08-31T20:10:10.518Z,101267.67
2022-08-31T20:13:45.088Z,101267.23
2022-08-31T20:17:15.422Z,101263.46
2022-08-31T20:20:56.946Z,101267.20
2022-08-31T20:24:27.033Z,101269.08
2022-08-31T20:28:00.229Z,101273.35
2022-08-31T20:31:45.034Z,101273.71
2022-08-31T20:35:14.530Z,101276.48
2022-08-31T20:38:45.997Z,101274.77
2022-08-31T20:42:23.373Z,101278.80
2022-08-31T20:45:56.661Z,101282.12
2022-08-31T20:49:39.626Z,101285.33
2022-08-31T20:53:08.031Z,101289.88
2022-08-31T20:56:36.739Z,101293.26
2022-08-31T21:00:07.719Z,101291.70
2022-08-31T21:03:38.563Z,101294.52
2022-08-31T21:07:12.273Z,101290.38
2022-08-31T21:10:41.784Z,101294.84
2022-08-31T21:14:11.281Z,101294.08
2022-08-31T21:17:41.904Z,101295.64
2022-08-31T21:21:14.215Z,101294.38
2022-08-31T21:24:43.537Z,101300.64
2022-08-31T21:28:13.178Z,101297.73
2022-08-31T21:31:48.976Z,101301.39
2022-08-31T21:35:23.864Z,101297.82
2022-08-31T21:38:52.886Z,101299.57
2022-08-31T21:42:20.097Z,101298.80
2022-08-31T21:46:04.499Z,101284.89
2022-08-31T21:49:31.852Z,101294.66
2022-08-31T21:53:00.663Z,101295.40
2022-08-31T21:56:30.743Z,101297.56
2022-08-31T22:00:16.073Z,101296.57
2022-08-31T22:03:50.298Z,101294.95
2022-08-31T22:07:17.612Z,101295.39
2022-08-31T22:10:46.010Z,101299.09
2022-08-31T22:14:16.402Z,101301.80
2022-08-31T22:18:05.966Z,101298.50
2022-08-31T22:21:37.371Z,101300.14
2022-08-31T22:25:11.321Z,101298.44
2022-08-31T22:28:38.519Z,101302.06
2022-08-31T22:32:09.151Z,101300.83
2022-08-31T22:35:40.636Z,101302.59
2022-08-31T22:39:24.786Z,101304.21
2022-08-31T22:43:17.949Z,101303.52
2022-08-31T22:46:51.313Z,101302.50
2022-08-31T22:50:19.385Z,101297.66
2022-08-31T22:54:06.779Z,101298.43
2022-08-31T22:57:34.829Z,101295.82
2022-08-31T23:01:02.521Z,101294.53
2022-08-31T23:04:31.021Z,101292.69
2022-08-31T23:07:58.466Z,101286.52
2022-08-31T23:11:28.486Z,101291.43
2022-08-31T23:14:56.757Z,101288.56
2022-08-31T23:18:24.228Z,101283.42
2022-08-31T23:21:56.814Z,101285.94
2022-08-31T23:25:25.961Z,101284.20
2022-08-31T23:28:53.815Z,101277.66
2022-08-31T23:32:28.259Z,101277.73
2022-08-31T23:35:56.625Z,101271.90
2022-08-31T23:39:25.582Z,101268.39
2022-08-31T23:42:54.176Z,101269.25
2022-08-31T23:46:24.318Z,101272.84
2022-08-31T23:49:53.621Z,101271.23
2022-08-31T23:53:23.591Z,101269.38
2022-08-31T23:56:57.194Z,101269.54
